Time;durP1;ratioP1;P1;durP2;ratioP2;P2;SDS_P1;SDS_P2;PMS_P1;PMS_P2;Temp;Humidity;BMP_temperature;BMP_pressure;BME280_temperature;BME280_humidity;BME280_pressure;Samples;Min_cycle;Max_cycle;Signal;HPM_P1;HPM_P2
2022/02/19 00:01:01;;;;;;;1.92;0.45;;;;;;;5.25;73.40;95009.81;5091320;27;20044;-75
2022/02/19 00:03:27;;;;;;;2.42;0.60;;;;;;;5.20;74.49;95013.16;5098102;28;20404;-74
2022/02/19 00:05:52;;;;;;;4.30;0.60;;;;;;;5.13;75.62;95023.00;5099775;28;20047;-74
2022/02/19 00:08:18;;;;;;;2.38;0.70;;;;;;;5.13;74.45;95023.00;5106025;27;20043;-74
2022/02/19 00:10:45;;;;;;;3.45;0.93;;;;;;;5.17;74.58;95028.50;5106401;27;20044;-75
2022/02/19 00:13:10;;;;;;;3.13;0.98;;;;;;;5.16;75.45;95032.16;5093707;28;20040;-75
2022/02/19 00:15:36;;;;;;;2.03;0.60;;;;;;;5.20;74.53;95044.47;5098951;28;20391;-74
2022/02/19 00:18:02;;;;;;;2.55;0.80;;;;;;;5.13;74.42;95053.50;5104326;28;20042;-74
2022/02/19 00:20:27;;;;;;;2.80;0.60;;;;;;;5.25;73.47;95051.53;5111708;27;20035;-74
2022/02/19 00:22:54;;;;;;;0.60;0.57;;;;;;;5.18;73.53;95064.00;5106317;28;20082;-74
2022/02/19 00:25:20;;;;;;;2.90;0.60;;;;;;;5.25;72.65;95072.41;5092070;28;20051;-76
2022/02/19 00:27:46;;;;;;;2.95;1.13;;;;;;;5.16;73.30;95079.13;5093428;28;20576;-74
2022/02/19 00:30:12;;;;;;;1.88;0.65;;;;;;;5.22;72.11;95087.78;5109383;28;20059;-75
2022/02/19 00:32:38;;;;;;;2.53;0.47;;;;;;;5.16;71.71;95089.56;5094032;28;20382;-74
2022/02/19 00:35:04;;;;;;;4.63;1.17;;;;;;;5.18;71.41;95103.13;5099632;28;20043;-75
2022/02/19 00:37:30;;;;;;;3.75;0.95;;;;;;;5.06;72.21;95094.63;5106420;28;20084;-75
2022/02/19 00:39:55;;;;;;;1.92;0.63;;;;;;;5.22;66.66;95093.78;5096094;28;20031;-75
2022/02/19 00:42:22;;;;;;;2.65;0.90;;;;;;;5.17;65.93;95096.31;5092026;28;20429;-74
2022/02/19 00:44:47;;;;;;;3.78;1.10;;;;;;;5.10;66.65;95100.94;5088734;28;20066;-75
2022/02/19 00:47:14;;;;;;;6.43;0.80;;;;;;;5.07;67.46;95096.22;5088693;28;20036;-75
2022/02/19 00:49:40;;;;;;;4.80;0.90;;;;;;;5.02;68.45;95121.22;5100069;28;20083;-75
2022/02/19 00:52:06;;;;;;;1.90;0.70;;;;;;;5.01;67.34;95124.88;5104651;28;20039;-75
2022/02/19 00:54:32;;;;;;;1.27;0.52;;;;;;;4.97;69.07;95108.13;5092094;28;20032;-75
2022/02/19 00:56:57;;;;;;;2.50;0.68;;;;;;;5.05;68.69;95119.16;5108931;28;20043;-74
2022/02/19 00:59:23;;;;;;;2.13;0.70;;;;;;;4.99;69.78;95116.47;5101971;28;20044;-75
2022/02/19 01:01:48;;;;;;;1.35;0.50;;;;;;;4.96;69.31;95126.63;5098078;28;20043;-75
2022/02/19 01:04:14;;;;;;;2.28;0.60;;;;;;;4.83;71.44;95117.34;5101486;28;20074;-74
2022/02/19 01:06:39;;;;;;;6.53;1.00;;;;;;;4.91;70.79;95114.28;5106615;28;20099;-75
2022/02/19 01:09:05;;;;;;;3.88;0.73;;;;;;;4.89;67.85;95100.72;5087466;28;20097;-75
2022/02/19 01:11:31;;;;;;;1.58;0.70;;;;;;;4.84;67.83;95111.09;5091357;28;20040;-74
2022/02/19 01:13:56;;;;;;;3.60;0.80;;;;;;;4.91;67.37;95129.94;5094341;28;20119;-75
2022/02/19 01:16:22;;;;;;;3.50;0.80;;;;;;;4.87;67.14;95123.66;5091976;28;20055;-74
2022/02/19 01:18:48;;;;;;;2.53;0.75;;;;;;;4.87;65.33;95144.50;5094325;28;20178;-74
2022/02/19 01:21:17;;;;;;;1.95;0.70;;;;;;;4.80;64.16;95138.69;5101573;28;20063;-74
2022/02/19 01:23:43;;;;;;;1.63;0.70;;;;;;;4.86;62.08;95154.13;5112789;27;20035;-75
2022/02/19 01:26:09;;;;;;;2.92;0.73;;;;;;;4.88;60.26;95155.72;5121063;27;20879;-75
2022/02/19 01:28:34;;;;;;;3.45;0.90;;;;;;;4.95;61.56;95141.47;5105896;27;20051;-74
2022/02/19 01:31:00;;;;;;;3.72;0.93;;;;;;;4.89;61.50;95142.44;5115232;27;20050;-74
2022/02/19 01:33:26;;;;;;;2.45;0.52;;;;;;;4.88;60.46;95140.06;5093914;28;20047;-74
2022/02/19 01:35:51;;;;;;;2.65;0.55;;;;;;;4.90;60.34;95138.00;5098871;28;20039;-74
2022/02/19 01:38:18;;;;;;;1.15;0.40;;;;;;;4.91;60.29;95137.75;5097249;28;20056;-74
2022/02/19 01:40:44;;;;;;;2.53;0.70;;;;;;;4.90;60.28;95138.00;5115690;28;20040;-75
2022/02/19 01:43:11;;;;;;;0.90;0.55;;;;;;;4.87;60.59;95128.88;5121077;27;20084;-75
2022/02/19 01:45:37;;;;;;;2.70;0.47;;;;;;;4.85;61.38;95136.13;5102169;27;20040;-74
2022/02/19 01:48:04;;;;;;;3.90;0.50;;;;;;;4.84;61.09;95126.72;5096035;27;20047;-74
2022/02/19 01:50:29;;;;;;;1.90;0.50;;;;;;;4.86;61.01;95122.06;5124485;27;20100;-75
2022/02/19 01:52:55;;;;;;;1.45;0.68;;;;;;;4.86;60.35;95122.84;5114927;27;20036;-74
2022/02/19 01:55:21;;;;;;;0.68;0.30;;;;;;;4.78;60.78;95125.88;5108606;27;20047;-75
2022/02/19 01:57:48;;;;;;;3.05;0.70;;;;;;;4.74;61.57;95124.81;5110305;28;20489;-74
2022/02/19 02:00:14;;;;;;;1.02;0.40;;;;;;;4.76;61.78;95145.41;5118396;27;20036;-74
2022/02/19 02:02:42;;;;;;;0.52;0.40;;;;;;;4.73;62.89;95138.06;5096878;28;20501;-74
2022/02/19 02:05:08;;;;;;;2.95;0.57;;;;;;;4.80;61.97;95138.69;5112730;27;20043;-74
2022/02/19 02:07:34;;;;;;;2.08;0.68;;;;;;;4.74;62.25;95143.06;5110229;27;20062;-75
2022/02/19 02:10:00;;;;;;;2.53;1.00;;;;;;;4.64;63.16;95140.28;5103203;28;20055;-73
2022/02/19 02:12:26;;;;;;;2.78;0.63;;;;;;;4.64;63.12;95145.50;5111641;28;20650;-74
2022/02/19 02:14:51;;;;;;;1.40;0.65;;;;;;;4.73;63.25;95148.50;5105757;27;20032;-75
2022/02/19 02:17:17;;;;;;;1.55;0.40;;;;;;;4.72;63.84;95157.34;5103049;27;20044;-74
2022/02/19 02:19:42;;;;;;;1.85;0.60;;;;;;;4.62;64.57;95158.78;5097951;28;20043;-74
2022/02/19 02:22:09;;;;;;;3.88;0.77;;;;;;;4.58;64.84;95152.47;5089945;28;20200;-75
2022/02/19 02:24:36;;;;;;;0.95;0.40;;;;;;;4.51;65.73;95151.84;5119309;27;20044;-74
2022/02/19 02:27:04;;;;;;;0.40;0.40;;;;;;;4.58;65.94;95157.66;5092168;28;20040;-74
2022/02/19 02:29:31;;;;;;;3.80;0.45;;;;;;;4.52;66.12;95158.63;5099824;28;20131;-74
2022/02/19 02:31:57;;;;;;;5.63;1.00;;;;;;;4.51;67.01;95157.03;5093057;28;20494;-74
2022/02/19 02:34:22;;;;;;;3.78;0.52;;;;;;;4.48;66.95;95157.53;5105368;27;20040;-75
2022/02/19 02:36:48;;;;;;;1.27;0.60;;;;;;;4.57;67.58;95163.94;5107761;27;20047;-74
2022/02/19 02:39:14;;;;;;;2.97;0.68;;;;;;;4.50;67.67;95153.66;5103658;28;20050;-74
2022/02/19 02:41:39;;;;;;;0.75;0.52;;;;;;;4.54;67.71;95166.22;5106167;28;20044;-74
2022/02/19 02:44:05;;;;;;;2.60;0.50;;;;;;;4.56;67.93;95164.94;5113888;27;20062;-74
2022/02/19 02:46:31;;;;;;;3.70;0.98;;;;;;;4.53;67.92;95181.06;5100008;27;20047;-75
2022/02/19 02:48:56;;;;;;;3.45;0.95;;;;;;;4.54;67.77;95172.22;5089045;28;20043;-75
2022/02/19 02:51:22;;;;;;;4.25;1.10;;;;;;;4.55;67.79;95178.22;5090047;28;20486;-75
2022/02/19 02:53:47;;;;;;;1.00;0.68;;;;;;;4.55;67.84;95176.38;5098864;27;20142;-75
2022/02/19 02:56:13;;;;;;;3.85;0.70;;;;;;;4.54;67.75;95181.84;5107785;27;20147;-75
2022/02/19 02:58:39;;;;;;;5.65;0.90;;;;;;;4.50;68.39;95186.75;5100596;27;20048;-74
2022/02/19 03:01:06;;;;;;;2.05;1.00;;;;;;;4.49;67.56;95180.75;5102621;28;20417;-74
2022/02/19 03:03:32;;;;;;;3.13;0.70;;;;;;;4.48;68.72;95173.16;5093856;28;20109;-74
2022/02/19 03:05:58;;;;;;;2.20;0.63;;;;;;;4.46;69.09;95193.47;5088789;28;20109;-74
2022/02/19 03:08:24;;;;;;;3.63;1.35;;;;;;;4.50;68.89;95197.19;5089337;28;20039;-74
2022/02/19 03:10:50;;;;;;;6.30;0.98;;;;;;;4.45;69.15;95202.31;5088934;28;20102;-74
2022/02/19 03:13:15;;;;;;;3.95;0.80;;;;;;;4.31;75.09;95220.06;5090244;28;20040;-74
2022/02/19 03:15:41;;;;;;;5.40;1.23;;;;;;;4.12;78.03;95237.72;5088262;28;20044;-75
2022/02/19 03:18:06;;;;;;;1.60;0.45;;;;;;;3.82;85.13;95238.78;5102013;28;20058;-74
2022/02/19 03:20:33;;;;;;;2.58;0.50;;;;;;;3.49;88.83;95224.63;5106040;28;20039;-74
2022/02/19 03:22:59;;;;;;;3.78;0.63;;;;;;;3.28;91.49;95229.44;5107731;28;20125;-74
2022/02/19 03:25:25;;;;;;;0.88;0.40;;;;;;;3.27;91.94;95238.25;5097079;28;20117;-74
2022/02/19 03:27:51;;;;;;;0.40;0.30;;;;;;;3.19;93.02;95236.03;5107280;28;20485;-74
2022/02/19 03:30:16;;;;;;;1.25;0.40;;;;;;;3.16;93.21;95236.50;5104925;27;20067;-74
2022/02/19 03:32:43;;;;;;;0.93;0.50;;;;;;;3.14;91.35;95269.72;5118890;27;20043;-75
2022/02/19 03:35:09;;;;;;;2.63;0.70;;;;;;;3.02;93.74;95272.34;5101359;28;20039;-74
2022/02/19 03:37:37;;;;;;;3.85;0.60;;;;;;;2.88;95.10;95282.16;5108217;28;20044;-75
2022/02/19 03:40:06;;;;;;;3.85;0.50;;;;;;;2.80;95.97;95274.69;5100398;28;20115;-74
2022/02/19 03:42:33;;;;;;;3.10;0.70;;;;;;;2.17;95.30;95282.06;5117932;27;20039;-74
2022/02/19 03:44:59;;;;;;;3.60;0.57;;;;;;;1.90;98.68;95287.59;5102157;27;20043;-74
2022/02/19 03:47:24;;;;;;;1.27;0.50;;;;;;;1.87;98.67;95288.06;5089518;28;20070;-74
2022/02/19 03:49:50;;;;;;;1.40;0.30;;;;;;;1.89;99.83;95274.84;5112002;27;20032;-74
2022/02/19 03:52:16;;;;;;;2.03;0.38;;;;;;;1.80;100.00;95271.78;5122590;27;20084;-74
2022/02/19 03:54:41;;;;;;;1.95;0.60;;;;;;;1.79;100.00;95270.19;5106995;27;20067;-73
2022/02/19 03:57:07;;;;;;;6.15;1.00;;;;;;;1.71;100.00;95267.88;5100982;28;20402;-74
2022/02/19 03:59:32;;;;;;;0.30;0.30;;;;;;;1.69;100.00;95260.31;5095111;27;20397;-74
2022/02/19 04:01:58;;;;;;;1.15;0.20;;;;;;;1.78;100.00;95273.00;5108929;27;20154;-74
2022/02/19 04:04:23;;;;;;;0.22;0.20;;;;;;;1.67;100.00;95272.75;5096565;28;20048;-74
2022/02/19 04:06:49;;;;;;;1.02;0.30;;;;;;;1.79;100.00;95272.78;5106648;28;20051;-74
2022/02/19 04:09:15;;;;;;;2.70;0.68;;;;;;;1.79;100.00;95277.97;5107571;27;20046;-74
2022/02/19 04:11:41;;;;;;;3.65;0.47;;;;;;;1.84;100.00;95283.31;5117585;27;20755;-74
2022/02/19 04:14:07;;;;;;;1.48;0.55;;;;;;;1.92;100.00;95289.97;5097228;27;20047;-75
2022/02/19 04:16:33;;;;;;;2.45;0.38;;;;;;;1.94;100.00;95287.16;5100737;28;20650;-74
2022/02/19 04:18:59;;;;;;;1.90;0.40;;;;;;;2.01;100.00;95283.50;5092714;28;20512;-74
2022/02/19 04:21:25;;;;;;;2.30;0.60;;;;;;;2.08;100.00;95291.97;5095029;28;20044;-74
2022/02/19 04:23:52;;;;;;;2.33;0.50;;;;;;;2.13;100.00;95293.91;5093193;28;20489;-74
2022/02/19 04:26:18;;;;;;;1.02;0.60;;;;;;;2.14;100.00;95282.53;5095651;28;20038;-75
2022/02/19 04:28:44;;;;;;;1.17;0.50;;;;;;;2.23;100.00;95290.78;5107871;28;20424;-74
2022/02/19 04:31:10;;;;;;;3.75;0.93;;;;;;;2.27;100.00;95293.72;5105788;28;20124;-74
2022/02/19 04:33:35;;;;;;;1.77;0.80;;;;;;;2.27;100.00;95291.13;5111853;28;20044;-74
2022/02/19 04:36:00;;;;;;;4.28;1.00;;;;;;;2.32;100.00;95296.44;5102335;28;20116;-74
2022/02/19 04:38:27;;;;;;;2.33;1.05;;;;;;;2.36;100.00;95300.19;5106762;28;20043;-74
2022/02/19 04:40:52;;;;;;;2.60;1.00;;;;;;;2.36;100.00;95295.00;5108776;28;20035;-74
2022/02/19 04:43:18;;;;;;;5.20;1.10;;;;;;;2.37;100.00;95304.34;5109682;28;20096;-74
2022/02/19 04:45:43;;;;;;;2.90;1.02;;;;;;;2.45;99.60;95309.22;5096580;28;20044;-74
2022/02/19 04:48:09;;;;;;;6.55;1.52;;;;;;;2.40;99.56;95306.53;5092431;28;20051;-74
2022/02/19 04:50:34;;;;;;;2.17;1.00;;;;;;;2.41;99.09;95313.28;5092612;28;20497;-75
2022/02/19 04:53:00;;;;;;;5.40;1.10;;;;;;;2.43;99.43;95311.28;5105466;27;20039;-74
2022/02/19 04:55:26;;;;;;;3.08;1.20;;;;;;;2.42;99.41;95304.47;5117281;27;20039;-74
2022/02/19 04:57:51;;;;;;;3.40;1.00;;;;;;;2.36;99.00;95305.38;5104924;27;20154;-74
2022/02/19 05:00:19;;;;;;;8.82;1.35;;;;;;;2.30;99.87;95306.25;5108230;27;20039;-74
2022/02/19 05:02:45;;;;;;;3.35;1.00;;;;;;;2.42;98.45;95326.03;5113103;27;20668;-74
2022/02/19 05:05:10;;;;;;;2.13;0.90;;;;;;;2.40;98.65;95328.09;5107436;27;20115;-74
2022/02/19 05:07:36;;;;;;;4.90;1.08;;;;;;;2.42;97.66;95326.03;5104535;27;20382;-74
2022/02/19 05:10:04;;;;;;;6.18;1.20;;;;;;;2.46;97.81;95326.41;5091180;28;20097;-74
2022/02/19 05:12:29;;;;;;;5.85;1.48;;;;;;;2.51;97.15;95339.50;5101100;27;20047;-74
2022/02/19 05:14:56;;;;;;;3.65;0.82;;;;;;;2.55;97.14;95335.44;5107864;27;20082;-74
2022/02/19 05:17:21;;;;;;;7.43;1.10;;;;;;;2.55;96.36;95335.44;5093719;28;20524;-74
2022/02/19 05:19:47;;;;;;;5.07;1.20;;;;;;;2.60;96.11;95345.97;5098048;28;20032;-74
2022/02/19 05:22:13;;;;;;;0.93;0.73;;;;;;;2.58;95.81;95340.19;5117686;27;20039;-74
2022/02/19 05:24:38;;;;;;;3.72;1.15;;;;;;;2.68;94.71;95347.44;5102518;27;20040;-74
2022/02/19 05:27:04;;;;;;;6.03;1.15;;;;;;;2.67;94.88;95342.47;5098893;28;20055;-75
2022/02/19 05:29:30;;;;;;;9.00;1.40;;;;;;;2.74;93.73;95348.38;5095438;28;20048;-75
2022/02/19 07:45:09;;;;;;;5.85;1.50;;;;;;;3.58;83.40;95545.94;5118704;27;20384;-76
2022/02/19 07:47:35;;;;;;;10.32;2.15;;;;;;;3.67;82.90;95545.59;5112407;28;20043;-74
2022/02/19 07:58:26;;;;;;;;;;;;;;;3.78;80.44;95557.84;5110725;28;20085;-77
2022/02/19 08:00:54;;;;;;;8.32;1.80;;;;;;;3.95;80.21;95566.56;5107559;28;19920;-76
2022/02/19 08:03:22;;;;;;;13.30;1.55;;;;;;;3.99;79.82;95572.09;5109086;28;20040;-75
2022/02/19 08:05:49;;;;;;;6.00;2.08;;;;;;;4.07;78.61;95568.41;5112924;27;20549;-76
2022/02/19 08:08:15;;;;;;;7.05;1.70;;;;;;;4.16;78.22;95567.03;5114884;28;20036;-76
2022/02/19 08:10:43;;;;;;;5.78;1.70;;;;;;;4.15;76.58;95570.63;5122913;28;20036;-77
2022/02/19 08:13:09;;;;;;;10.07;2.00;;;;;;;4.23;74.92;95577.34;5110587;27;20043;-76
2022/02/19 08:15:36;;;;;;;10.63;2.05;;;;;;;4.24;75.32;95571.91;5110702;28;20039;-77
2022/02/19 08:18:07;;;;;;;6.80;1.40;;;;;;;4.18;74.63;95575.41;5120721;27;20112;-76
2022/02/19 08:20:35;;;;;;;14.15;2.05;;;;;;;4.18;73.71;95575.41;5112297;27;20054;-76
2022/02/19 08:23:02;;;;;;;7.38;1.25;;;;;;;4.19;73.64;95587.41;5107829;28;20044;-78
2022/02/19 08:25:27;;;;;;;10.57;1.83;;;;;;;4.16;73.64;95582.66;5128299;28;20046;-79
2022/02/19 08:27:53;;;;;;;10.45;1.60;;;;;;;4.13;74.05;95588.31;5124155;28;20538;-77
2022/02/19 08:30:19;;;;;;;5.40;1.30;;;;;;;4.25;72.35;95602.16;5118742;28;20522;-76
2022/02/19 08:32:45;;;;;;;8.60;1.60;;;;;;;4.17;72.92;95594.66;5107313;28;20050;-77
2022/02/19 08:35:11;;;;;;;6.93;1.45;;;;;;;4.32;73.21;95597.63;5110317;28;20035;-77
2022/02/19 08:37:37;;;;;;;11.95;2.20;;;;;;;4.56;72.53;95608.00;5107813;28;20132;-77
2022/02/19 08:40:05;;;;;;;10.43;1.60;;;;;;;4.51;73.62;95615.72;5108892;28;20451;-77
2022/02/19 08:42:30;;;;;;;10.38;1.77;;;;;;;4.46;74.83;95618.22;5110058;28;20561;-76
2022/02/19 08:44:56;;;;;;;7.05;1.60;;;;;;;4.49;73.95;95618.53;5122776;27;20036;-79
2022/02/19 08:47:21;;;;;;;5.18;1.52;;;;;;;4.55;73.85;95622.06;5114421;28;20471;-74
2022/02/19 08:49:47;;;;;;;8.45;1.65;;;;;;;4.52;73.96;95617.31;5123808;27;20394;-74
2022/02/19 08:52:13;;;;;;;8.43;2.28;;;;;;;4.63;73.83;95619.09;5126986;27;20046;-73
2022/02/19 08:54:39;;;;;;;7.30;1.63;;;;;;;4.74;72.68;95608.88;5112531;27;20033;-73
2022/02/19 08:57:04;;;;;;;5.57;1.60;;;;;;;4.78;74.92;95610.81;5096565;28;20044;-74
2022/02/19 08:59:30;;;;;;;7.20;1.77;;;;;;;4.99;72.77;95606.78;5092768;28;20494;-73
2022/02/19 09:01:58;;;;;;;12.65;1.33;;;;;;;4.95;68.09;95621.31;5093840;28;20448;-75
2022/02/19 09:04:24;;;;;;;6.28;1.70;;;;;;;4.95;68.74;95616.09;5104599;28;20110;-75
2022/02/19 09:06:49;;;;;;;4.28;1.45;;;;;;;5.02;66.83;95621.97;5111494;28;20611;-76
2022/02/19 09:09:15;;;;;;;12.18;1.80;;;;;;;4.92;67.80;95624.38;5099368;28;20119;-76
2022/02/19 09:11:41;;;;;;;8.57;2.05;;;;;;;5.03;68.74;95628.78;5100751;28;20420;-75
2022/02/19 09:14:06;;;;;;;9.55;1.52;;;;;;;4.98;66.08;95630.50;5106211;28;20139;-74
2022/02/19 09:16:36;;;;;;;11.90;1.88;;;;;;;4.94;65.77;95624.97;5095841;27;20043;-74
2022/02/19 09:19:02;;;;;;;13.73;1.67;;;;;;;4.90;64.16;95628.25;5097223;28;20062;-74
2022/02/19 09:21:28;;;;;;;12.63;1.90;;;;;;;4.79;65.65;95642.91;5104785;28;20042;-76
2022/02/19 09:23:54;;;;;;;8.75;1.90;;;;;;;4.86;64.38;95640.97;5097842;27;20106;-74
2022/02/19 09:26:21;;;;;;;10.00;1.45;;;;;;;4.84;61.91;95640.38;5104869;28;20400;-74
2022/02/19 09:28:47;;;;;;;9.88;1.45;;;;;;;4.78;62.66;95656.94;5099456;28;20111;-75
2022/02/19 09:31:13;;;;;;;10.90;1.70;;;;;;;4.80;62.13;95654.91;5097963;28;20040;-76
2022/02/19 09:33:39;;;;;;;6.88;1.40;;;;;;;4.84;62.64;95656.03;5103409;28;20036;-77
2022/02/19 09:36:05;;;;;;;8.55;1.70;;;;;;;4.76;62.38;95651.19;5103376;28;20089;-76
2022/02/19 09:38:30;;;;;;;11.05;2.00;;;;;;;4.78;63.10;95683.03;5105856;28;20047;-75
2022/02/19 09:40:57;;;;;;;5.40;1.40;;;;;;;4.85;62.79;95678.47;5102648;27;20036;-75
2022/02/19 09:43:23;;;;;;;5.07;1.38;;;;;;;4.88;61.48;95674.63;5103051;28;20420;-74
2022/02/19 09:45:49;;;;;;;13.93;2.13;;;;;;;4.96;62.44;95658.63;5102497;28;20081;-75
2022/02/19 09:48:17;;;;;;;13.63;2.03;;;;;;;4.99;61.61;95672.00;5090856;28;20040;-75
2022/02/19 09:50:45;;;;;;;18.75;2.25;;;;;;;5.24;62.24;95670.91;5100884;28;20047;-75
2022/02/19 09:53:11;;;;;;;12.77;1.63;;;;;;;5.22;61.61;95665.16;5104357;28;20044;-76
2022/02/19 09:55:38;;;;;;;10.73;2.40;;;;;;;5.53;60.75;95668.31;5091884;28;20040;-75
2022/02/19 09:58:04;;;;;;;10.95;1.80;;;;;;;5.65;60.07;95676.13;5091244;28;20196;-75
2022/02/19 10:00:45;;;;;;;12.85;2.00;;;;;;;5.68;59.86;95675.66;5094320;28;20036;-74
2022/02/19 10:03:32;;;;;;;8.20;1.67;;;;;;;5.63;58.44;95681.59;5105752;28;20067;-76
2022/02/19 10:06:10;;;;;;;10.05;2.00;;;;;;;5.58;59.29;95685.94;5098782;28;20092;-74
2022/02/19 10:08:36;;;;;;;10.93;1.80;;;;;;;5.44;59.94;95685.41;5110027;28;20110;-76
2022/02/19 10:11:03;;;;;;;15.57;1.92;;;;;;;5.36;58.96;95697.78;5097714;28;20052;-75
2022/02/19 10:13:41;;;;;;;6.65;1.48;;;;;;;5.23;58.73;95695.44;5097357;28;20036;-77
2022/02/19 10:16:09;;;;;;;9.98;1.42;;;;;;;5.21;57.64;95707.91;5092366;28;20051;-77
2022/02/19 10:18:39;;;;;;;9.52;1.95;;;;;;;5.43;56.59;95694.25;5091967;28;20514;-79
2022/02/19 10:21:13;;;;;;;13.10;1.77;;;;;;;6.29;55.05;95696.81;5104975;28;20052;-75
2022/02/19 10:23:50;;;;;;;12.05;1.75;;;;;;;5.83;55.80;95688.19;5103877;28;20044;-76
2022/02/19 10:26:19;;;;;;;8.95;1.90;;;;;;;7.10;54.35;95693.81;5098543;28;20165;-75
2022/02/19 10:29:14;;;;;;;10.80;2.33;;;;;;;6.57;55.14;95697.78;5091354;28;20051;-74
2022/02/19 10:31:39;;;;;;;13.02;2.03;;;;;;;6.49;53.57;95691.13;5083220;28;20416;-74
2022/02/19 10:34:12;;;;;;;11.52;2.25;;;;;;;6.12;53.96;95696.84;5101534;28;20047;-76
2022/02/19 10:36:45;;;;;;;7.85;2.25;;;;;;;7.44;51.13;95704.19;5098365;27;20071;-75
2022/02/19 10:39:10;;;;;;;13.13;1.95;;;;;;;6.87;51.89;95701.88;5094213;28;20044;-75
2022/02/19 10:41:39;;;;;;;10.00;1.65;;;;;;;7.24;48.02;95706.53;5094724;28;20387;-75
2022/02/19 10:44:27;;;;;;;8.68;1.85;;;;;;;7.82;48.07;95693.06;5089998;28;20497;-74
2022/02/19 10:46:57;;;;;;;7.78;1.80;;;;;;;7.87;48.34;95693.09;5100094;28;20031;-74
2022/02/19 10:49:25;;;;;;;6.85;1.77;;;;;;;7.09;49.46;95700.06;5106613;28;20118;-75
2022/02/19 10:51:51;;;;;;;6.95;1.67;;;;;;;6.81;50.96;95713.28;5089401;28;20040;-76
2022/02/19 10:54:22;;;;;;;9.15;1.60;;;;;;;6.96;51.31;95710.91;5092301;28;20044;-76
2022/02/19 10:56:49;;;;;;;7.97;1.42;;;;;;;6.41;53.46;95713.25;5099555;28;20058;-75
2022/02/19 10:59:18;;;;;;;9.43;1.67;;;;;;;6.54;52.26;95708.72;5098803;28;20040;-78
2022/02/19 11:01:51;;;;;;;11.15;1.75;;;;;;;6.27;53.41;95704.13;5099553;28;20040;-76
2022/02/19 11:04:20;;;;;;;6.25;1.98;;;;;;;6.84;50.97;95697.91;5096010;28;20101;-75
2022/02/19 11:06:47;;;;;;;8.52;1.60;;;;;;;6.39;53.60;95712.69;5095913;28;20039;-76
2022/02/19 11:09:14;;;;;;;9.73;2.13;;;;;;;7.08;50.93;95698.50;5099542;28;20048;-81
2022/02/19 11:11:45;;;;;;;9.88;1.88;;;;;;;7.65;51.67;95701.78;5097453;28;20634;-75
2022/02/19 11:14:15;;;;;;;5.25;1.70;;;;;;;8.80;48.80;95698.06;5090028;28;20040;-76
2022/02/19 11:16:42;;;;;;;5.70;1.45;;;;;;;9.34;47.63;95693.66;5089521;28;20032;-76
2022/02/19 11:19:08;;;;;;;11.00;1.75;;;;;;;10.37;44.32;95693.88;5090916;28;20505;-79
2022/02/19 11:21:35;;;;;;;10.77;2.20;;;;;;;11.89;41.34;95685.00;5093176;28;20035;-76
2022/02/19 11:24:04;;;;;;;9.02;2.17;;;;;;;11.10;44.53;95690.09;5094107;28;20502;-76
2022/02/19 11:26:30;;;;;;;12.18;2.47;;;;;;;12.63;42.09;95671.84;5102399;28;20055;-75
2022/02/19 11:29:10;;;;;;;7.57;1.73;;;;;;;11.31;44.05;95674.25;5108004;28;20043;-75
2022/02/19 11:31:38;;;;;;;6.10;1.55;;;;;;;10.79;44.98;95674.38;5098618;28;20087;-75
2022/02/19 11:34:05;;;;;;;7.97;1.55;;;;;;;10.16;46.06;95670.19;5096124;28;20036;-74
2022/02/19 11:36:33;;;;;;;12.15;1.98;;;;;;;10.43;45.46;95666.53;5093709;28;20410;-74
2022/02/19 11:39:00;;;;;;;12.65;2.40;;;;;;;9.26;48.01;95670.50;5098470;28;20152;-73
2022/02/19 11:41:40;;;;;;;10.25;1.90;;;;;;;8.95;47.98;95670.34;5089795;28;20451;-75
2022/02/19 11:44:14;;;;;;;5.75;1.73;;;;;;;9.52;45.68;95658.22;5092722;28;22242;-75
2022/02/19 11:46:41;;;;;;;7.35;1.75;;;;;;;8.51;48.48;95670.59;5107451;28;20409;-75
2022/02/19 11:49:26;;;;;;;10.25;2.10;;;;;;;8.31;50.17;95661.50;5108170;28;20044;-74
2022/02/19 11:52:01;;;;;;;7.47;1.58;;;;;;;8.49;47.98;95663.78;5093483;28;20160;-74
2022/02/19 11:54:26;;;;;;;8.73;1.73;;;;;;;10.76;43.11;95664.41;5088734;28;20115;-74
2022/02/19 11:56:53;;;;;;;12.35;1.67;;;;;;;11.45;42.46;95659.44;5088550;28;20044;-74
2022/02/19 11:59:21;;;;;;;13.75;2.08;;;;;;;11.89;41.21;95663.13;5088918;28;20531;-75
2022/02/19 12:02:23;;;;;;;5.13;1.98;;;;;;;11.29;40.65;95660.53;5087564;28;20290;-75
2022/02/19 12:05:26;;;;;;;9.77;1.77;;;;;;;11.64;41.90;95650.88;5089438;28;20079;-74
2022/02/19 12:08:01;;;;;;;3.80;1.55;;;;;;;12.17;38.54;95653.75;5089603;28;20053;-74
2022/02/19 12:10:27;;;;;;;9.00;1.95;;;;;;;11.63;39.56;95639.56;5097215;28;20417;-74
2022/02/19 12:13:10;;;;;;;7.95;2.00;;;;;;;11.84;39.47;95634.97;5089247;28;20512;-74
2022/02/19 12:15:38;;;;;;;9.70;2.15;;;;;;;13.47;38.29;95630.28;5089168;28;20036;-75
2022/02/19 12:18:04;;;;;;;6.60;1.75;;;;;;;12.62;38.63;95649.13;5089425;28;20055;-74
2022/02/19 12:20:32;;;;;;;8.00;2.13;;;;;;;12.97;37.94;95639.31;5101090;28;20051;-74
2022/02/19 12:23:03;;;;;;;8.90;1.80;;;;;;;12.65;37.66;95632.72;5108416;28;20044;-74
2022/02/19 12:25:55;;;;;;;6.20;1.50;;;;;;;11.49;41.25;95631.44;5088778;28;20048;-75
2022/02/19 12:28:21;;;;;;;10.40;1.90;;;;;;;10.88;43.02;95630.66;5083451;28;20059;-74
2022/02/19 12:31:20;;;;;;;10.32;2.28;;;;;;;11.75;40.92;95624.22;5089248;28;20093;-74
2022/02/19 12:33:47;;;;;;;14.02;2.10;;;;;;;10.91;44.19;95624.84;5095162;28;20032;-74
2022/02/19 12:36:13;;;;;;;7.82;1.70;;;;;;;10.75;41.94;95625.97;5113148;27;20398;-74
2022/02/19 12:38:45;;;;;;;7.72;1.67;;;;;;;10.69;42.81;95627.03;5113612;28;20043;-74
2022/02/19 12:41:11;;;;;;;9.90;1.92;;;;;;;11.73;40.57;95613.13;5102198;27;20490;-74
2022/02/19 12:43:37;;;;;;;6.03;1.77;;;;;;;10.46;42.54;95623.91;5092893;28;20063;-74
2022/02/19 12:46:03;;;;;;;7.70;1.95;;;;;;;11.45;41.06;95622.53;5092541;28;20455;-74
2022/02/19 12:48:28;;;;;;;5.15;1.50;;;;;;;12.27;40.84;95616.72;5092759;28;20052;-74
2022/02/19 12:50:58;;;;;;;10.55;1.88;;;;;;;12.46;39.50;95613.41;5092753;28;20087;-75
2022/02/19 12:53:24;;;;;;;8.45;2.42;;;;;;;13.26;38.31;95619.94;5092596;28;20493;-74
2022/02/19 12:55:57;;;;;;;6.70;2.35;;;;;;;12.62;37.44;95622.75;5093356;28;20067;-75
2022/02/19 12:58:26;;;;;;;7.40;1.85;;;;;;;13.80;37.67;95606.56;5092567;28;20044;-74
2022/02/19 13:00:53;;;;;;;7.70;1.92;;;;;;;13.15;37.96;95600.00;5092458;28;20050;-74
2022/02/19 13:03:20;;;;;;;6.15;2.03;;;;;;;12.04;37.23;95598.97;5092541;28;20044;-74
2022/02/19 13:05:55;;;;;;;9.18;1.92;;;;;;;10.78;39.83;95614.88;5092272;28;20036;-74
2022/02/19 13:08:22;;;;;;;8.68;2.00;;;;;;;9.34;42.56;95609.59;5109870;28;20035;-74
2022/02/19 13:10:49;;;;;;;10.43;1.88;;;;;;;8.97;42.64;95615.75;5109794;28;20046;-74
2022/02/19 13:13:20;;;;;;;6.22;1.67;;;;;;;8.37;44.44;95615.91;5092175;28;20425;-74
2022/02/19 13:15:57;;;;;;;6.20;1.55;;;;;;;8.14;45.48;95620.47;5101548;28;20035;-74
2022/02/19 13:18:46;;;;;;;8.20;1.92;;;;;;;8.15;45.72;95616.81;5112643;28;20405;-74
2022/02/19 13:21:17;;;;;;;8.50;1.88;;;;;;;8.01;45.58;95613.03;5106964;28;20048;-74
2022/02/19 13:23:48;;;;;;;6.50;1.85;;;;;;;8.36;46.66;95616.19;5110715;27;20055;-74
2022/02/19 13:26:40;;;;;;;5.82;1.63;;;;;;;8.01;47.08;95610.41;5097460;28;20119;-78
2022/02/19 13:29:06;;;;;;;6.68;1.48;;;;;;;8.11;45.70;95612.34;5101563;28;20044;-75
2022/02/19 13:31:31;;;;;;;9.95;2.17;;;;;;;7.98;45.88;95616.16;5102618;28;20044;-74
2022/02/19 13:33:57;;;;;;;9.48;1.80;;;;;;;7.75;46.30;95618.06;5101449;28;20052;-76
2022/02/19 13:36:24;;;;;;;11.90;1.88;;;;;;;7.69;46.53;95613.03;5101553;28;20046;-76
2022/02/19 13:38:50;;;;;;;7.22;1.85;;;;;;;7.42;47.63;95625.06;5110988;28;20040;-75
2022/02/19 13:41:16;;;;;;;5.38;1.50;;;;;;;7.41;47.85;95613.03;5102512;27;20059;-74
2022/02/19 13:43:42;;;;;;;8.85;1.60;;;;;;;7.36;48.43;95618.22;5091679;28;20055;-75
2022/02/19 13:46:16;;;;;;;7.45;1.70;;;;;;;7.26;48.62;95620.72;5097986;28;20036;-75
2022/02/19 13:48:45;;;;;;;6.27;1.67;;;;;;;7.01;48.87;95640.31;5090213;28;20039;-75
2022/02/19 13:51:12;;;;;;;6.90;1.58;;;;;;;7.01;50.21;95640.31;5100293;28;20283;-74
2022/02/19 13:53:39;;;;;;;7.53;2.10;;;;;;;6.99;49.54;95641.59;5098303;28;20772;-74
2022/02/19 13:56:09;;;;;;;5.28;1.50;;;;;;;6.69;50.27;95633.09;5096848;28;20436;-74
2022/02/19 13:58:36;;;;;;;9.88;1.80;;;;;;;6.90;50.90;95633.38;5110679;28;20036;-76
2022/02/19 14:01:16;;;;;;;5.78;1.65;;;;;;;6.76;50.30;95638.94;5094423;28;20051;-75
2022/02/19 14:03:51;;;;;;;8.80;1.90;;;;;;;6.84;50.77;95626.47;5090872;28;20044;-74